KDLZ

Delaware Municipal - Jim Moore Field Airport

Delaware, Ohio, USA
METAR KDLZ 140457Z AUTO 31009KT 10SM SCT110 M03/M07 A3043 RMK AO2
Observed Flight Rules
Nov-14 @ 04:57 UTC (18 minutes ago) Visual Flight Rules
Wind Visibility Clouds
310° at 9 knots 10 miles
  • Scattered at 11,000' AGL
Temperatures Readings
Current -3°C / 27°F
Dewpoint -7°C / 19°F
Humidity 74%
Altimeter 30.43" Hg
Pressure 1030 hPa
Elevation 289
METAR KDLZ 140457Z AUTO 31009KT 10SM SCT110 M03/M07 A3043 RMK AO2
Observed Flight Rules
Nov-14 @ 04:57 UTC
(18 minutes ago)
VFR
Wind Visibility
310° at 9 knots 10 miles
Clouds
  • Scattered at 11,000' AGL
Temperature Dewpoint
-3°C / 27°F -7°C / 19°F
Humidity Altimeter Pressure
74% 30.43" Hg 1030 hPa